createdAt,value
2022-08-26T00:02:19.319Z,2.03
2022-08-26T00:04:49.386Z,1.80
2022-08-26T00:07:19.100Z,1.83
2022-08-26T00:09:47.560Z,1.97
2022-08-26T00:12:15.845Z,2.00
2022-08-26T00:14:44.270Z,1.90
2022-08-26T00:17:14.460Z,2.50
2022-08-26T00:20:29.117Z,2.00
2022-08-26T00:22:58.938Z,2.40
2022-08-26T00:25:27.814Z,2.43
2022-08-26T00:27:56.075Z,2.10
2022-08-26T00:30:27.716Z,2.20
2022-08-26T00:32:56.222Z,2.03
2022-08-26T00:35:25.692Z,1.93
2022-08-26T00:37:58.177Z,2.50
2022-08-26T00:40:29.571Z,1.70
2022-08-26T00:42:58.003Z,2.10
2022-08-26T00:45:29.047Z,1.80
2022-08-26T00:48:02.315Z,2.10
2022-08-26T00:50:36.936Z,1.93
2022-08-26T00:53:24.267Z,1.70
2022-08-26T00:55:59.851Z,1.77
2022-08-26T00:58:30.885Z,1.87
2022-08-26T01:05:27.580Z,1.80
2022-08-26T01:12:40.332Z,1.70
2022-08-26T01:15:10.903Z,1.70
2022-08-26T01:17:41.336Z,2.17
2022-08-26T01:20:24.695Z,2.10
2022-08-26T01:22:58.202Z,1.63
2022-08-26T01:25:32.808Z,2.00
2022-08-26T01:28:05.832Z,2.37
2022-08-26T01:30:35.281Z,2.10
2022-08-26T01:33:08.089Z,2.47
2022-08-26T01:35:37.896Z,2.40
2022-08-26T01:38:07.803Z,2.23
2022-08-26T01:40:39.979Z,2.00
2022-08-26T01:43:10.245Z,2.00
2022-08-26T01:45:41.711Z,2.10
2022-08-26T01:48:15.002Z,2.50
2022-08-26T01:50:46.357Z,2.33
2022-08-26T01:53:19.771Z,2.10
2022-08-26T01:55:54.409Z,2.40
2022-08-26T01:58:25.573Z,2.30
2022-08-26T02:00:55.826Z,2.33
2022-08-26T02:08:01.893Z,1.93
2022-08-26T02:10:32.652Z,2.50
2022-08-26T02:13:01.921Z,2.10
2022-08-26T02:15:33.515Z,2.10
2022-08-26T02:18:05.926Z,2.23
2022-08-26T02:20:37.046Z,2.50
2022-08-26T02:23:07.995Z,2.60
2022-08-26T02:25:45.108Z,2.20
2022-08-26T02:28:14.381Z,2.47
2022-08-26T02:30:43.047Z,2.70
2022-08-26T02:33:11.406Z,2.57
2022-08-26T02:35:39.835Z,2.57
2022-08-26T02:38:11.455Z,2.47
2022-08-26T02:40:43.992Z,2.40
2022-08-26T02:43:13.392Z,2.47
2022-08-26T02:45:42.967Z,2.23
2022-08-26T02:48:14.912Z,2.10
2022-08-26T02:50:43.455Z,1.90
2022-08-26T02:53:13.331Z,1.83
2022-08-26T02:55:43.392Z,1.73
2022-08-26T02:58:12.496Z,1.80
2022-08-26T03:00:52.885Z,2.00
2022-08-26T03:03:23.729Z,1.80
2022-08-26T03:05:55.081Z,2.23
2022-08-26T03:08:23.764Z,1.70
2022-08-26T03:10:54.901Z,2.40
2022-08-26T03:13:23.140Z,2.00
2022-08-26T03:15:51.699Z,2.30
2022-08-26T03:18:19.834Z,1.70
2022-08-26T03:20:48.895Z,1.97
2022-08-26T03:23:18.505Z,1.80
2022-08-26T03:25:50.958Z,1.93
2022-08-26T03:28:21.368Z,1.90
2022-08-26T03:30:49.262Z,1.77
2022-08-26T03:33:19.083Z,1.70
2022-08-26T03:35:50.520Z,1.90
2022-08-26T03:38:19.986Z,1.93
2022-08-26T03:40:48.662Z,2.10
2022-08-26T03:43:21.490Z,1.97
2022-08-26T03:45:50.099Z,1.77
2022-08-26T03:48:21.912Z,1.90
2022-08-26T03:50:50.644Z,1.90
2022-08-26T03:53:20.571Z,1.83
2022-08-26T03:55:51.944Z,2.10
2022-08-26T03:58:24.490Z,2.10
2022-08-26T04:00:55.551Z,2.30
2022-08-26T04:04:01.807Z,2.03
2022-08-26T04:07:09.206Z,2.20
2022-08-26T04:09:38.029Z,1.93
2022-08-26T04:12:09.239Z,2.80
2022-08-26T04:14:39.978Z,2.70
2022-08-26T04:17:08.216Z,2.40
2022-08-26T04:19:36.590Z,2.37
2022-08-26T04:22:05.293Z,2.90
2022-08-26T04:24:34.712Z,2.20
2022-08-26T04:27:03.627Z,2.10
2022-08-26T04:29:33.051Z,2.13
2022-08-26T04:32:04.861Z,2.03
2022-08-26T04:34:34.527Z,2.47
2022-08-26T04:37:03.208Z,2.10
2022-08-26T04:39:31.652Z,2.30
2022-08-26T04:42:01.772Z,2.03
2022-08-26T04:44:31.888Z,2.03
2022-08-26T04:47:00.122Z,2.20
2022-08-26T04:49:35.145Z,2.10
2022-08-26T04:52:05.074Z,1.80
2022-08-26T04:54:33.732Z,1.60
2022-08-26T04:57:02.484Z,1.63
2022-08-26T04:59:30.830Z,1.83
2022-08-26T05:01:59.846Z,1.90
2022-08-26T05:04:30.337Z,1.50
2022-08-26T05:07:02.839Z,1.87
2022-08-26T05:09:32.023Z,2.03
2022-08-26T05:12:00.191Z,1.53
2022-08-26T05:14:31.290Z,2.07
2022-08-26T05:16:59.698Z,1.60
2022-08-26T05:19:29.564Z,1.60
2022-08-26T05:21:57.863Z,1.73
2022-08-26T05:24:26.564Z,1.60
2022-08-26T05:26:56.484Z,1.60
2022-08-26T05:29:25.153Z,1.57
2022-08-26T05:31:55.962Z,1.80
2022-08-26T05:34:25.738Z,1.50
2022-08-26T05:37:00.396Z,1.60
2022-08-26T05:39:28.655Z,1.60
2022-08-26T05:41:56.870Z,1.53
2022-08-26T05:44:25.661Z,1.40
2022-08-26T05:46:54.103Z,1.57
2022-08-26T05:49:26.167Z,1.60
2022-08-26T05:51:55.148Z,1.67
2022-08-26T05:54:25.086Z,1.50
2022-08-26T05:56:53.466Z,1.77
2022-08-26T05:59:24.509Z,1.40
2022-08-26T06:01:54.745Z,1.97
2022-08-26T06:04:24.885Z,1.57
2022-08-26T06:06:55.630Z,1.87
2022-08-26T06:09:26.720Z,1.87
2022-08-26T06:11:55.967Z,1.70
2022-08-26T06:14:25.964Z,1.73
2022-08-26T06:16:55.212Z,1.40
2022-08-26T06:19:23.689Z,1.50
2022-08-26T06:21:54.726Z,1.53
2022-08-26T06:24:42.200Z,1.73
2022-08-26T06:27:13.777Z,1.77
2022-08-26T06:29:43.970Z,1.53
2022-08-26T06:32:12.703Z,1.60
2022-08-26T06:34:41.088Z,1.60
2022-08-26T06:37:10.280Z,1.87
2022-08-26T06:39:41.168Z,1.90
2022-08-26T06:42:10.827Z,1.90
2022-08-26T06:44:41.084Z,2.20
2022-08-26T06:47:09.558Z,2.10
2022-08-26T06:49:38.322Z,2.27
2022-08-26T06:52:08.053Z,2.40
2022-08-26T06:54:37.110Z,2.17
2022-08-26T06:57:08.994Z,1.80
2022-08-26T06:59:38.574Z,1.90
2022-08-26T07:02:06.924Z,2.03
2022-08-26T07:04:36.854Z,2.10
2022-08-26T07:07:05.322Z,2.00
2022-08-26T07:09:35.362Z,2.17
2022-08-26T07:12:06.889Z,1.87
2022-08-26T07:14:37.140Z,1.80
2022-08-26T07:17:07.363Z,1.63
2022-08-26T07:19:38.528Z,1.70
2022-08-26T07:22:08.616Z,1.93
2022-08-26T07:24:42.566Z,1.50
2022-08-26T07:27:15.590Z,1.70
2022-08-26T07:29:45.994Z,1.47
2022-08-26T07:32:16.082Z,1.50
2022-08-26T07:34:49.691Z,1.60
2022-08-26T07:37:18.599Z,1.93
2022-08-26T07:39:48.475Z,1.60
2022-08-26T07:42:21.804Z,1.60
2022-08-26T07:44:51.725Z,1.50
2022-08-26T07:47:25.238Z,1.57
2022-08-26T07:49:55.827Z,1.57
2022-08-26T07:52:27.243Z,1.47
2022-08-26T07:54:58.352Z,1.53
2022-08-26T07:57:27.215Z,1.60
2022-08-26T07:59:57.536Z,1.50
2022-08-26T08:02:26.996Z,1.30
2022-08-26T08:04:56.825Z,1.80
2022-08-26T08:07:38.746Z,1.80
2022-08-26T08:10:16.988Z,1.50
2022-08-26T08:12:46.059Z,1.23
2022-08-26T08:15:15.970Z,1.60
2022-08-26T08:17:44.681Z,1.63
2022-08-26T08:20:15.160Z,1.27
2022-08-26T08:22:44.120Z,1.23
2022-08-26T08:25:13.996Z,1.50
2022-08-26T08:27:45.723Z,1.70
2022-08-26T08:30:20.842Z,1.43
2022-08-26T08:32:51.602Z,1.50
2022-08-26T08:35:22.669Z,1.60
2022-08-26T08:37:54.475Z,1.30
2022-08-26T08:40:25.204Z,1.03
2022-08-26T08:42:59.399Z,1.83
2022-08-26T08:45:37.073Z,1.30
2022-08-26T08:48:11.723Z,1.13
2022-08-26T08:50:45.939Z,1.53
2022-08-26T08:53:17.585Z,1.30
2022-08-26T08:56:11.472Z,1.37
2022-08-26T08:58:53.489Z,1.40
2022-08-26T09:01:39.723Z,1.23
2022-08-26T09:04:24.703Z,1.07
2022-08-26T09:09:31.392Z,0.97
2022-08-26T09:12:01.792Z,0.97
2022-08-26T09:14:31.405Z,0.90
2022-08-26T09:17:08.109Z,1.40
2022-08-26T09:19:41.303Z,0.83
2022-08-26T09:22:10.087Z,1.00
2022-08-26T09:24:48.432Z,0.90
2022-08-26T09:27:38.898Z,1.00
2022-08-26T09:30:11.545Z,1.23
2022-08-26T09:32:41.981Z,0.80
2022-08-26T09:35:24.599Z,0.90
2022-08-26T09:37:53.266Z,0.70
2022-08-26T09:40:29.181Z,1.00
2022-08-26T09:43:10.068Z,0.80
2022-08-26T09:45:40.539Z,0.87
2022-08-26T09:48:36.530Z,1.07
2022-08-26T09:51:07.040Z,0.73
2022-08-26T09:53:50.761Z,0.80
2022-08-26T09:56:27.535Z,0.77
2022-08-26T09:58:57.793Z,0.73
2022-08-26T10:01:32.189Z,0.70
2022-08-26T10:04:08.746Z,0.70
2022-08-26T10:06:41.780Z,0.50
2022-08-26T10:09:14.241Z,0.90
2022-08-26T10:11:48.960Z,0.68
2022-08-26T10:14:22.476Z,0.57
2022-08-26T10:16:57.126Z,0.43
2022-08-26T10:19:48.285Z,0.88
2022-08-26T10:22:27.060Z,0.60
2022-08-26T10:25:01.121Z,0.73
2022-08-26T10:27:49.508Z,0.70
2022-08-26T10:30:24.712Z,0.80
2022-08-26T10:32:56.648Z,0.87
2022-08-26T10:35:27.620Z,1.07
2022-08-26T10:38:00.274Z,1.00
2022-08-26T10:40:36.565Z,1.08
2022-08-26T10:43:11.475Z,1.17
2022-08-26T10:45:45.687Z,1.15
2022-08-26T10:48:18.623Z,1.37
2022-08-26T10:50:49.331Z,1.10
2022-08-26T10:53:38.430Z,1.23
2022-08-26T10:56:19.709Z,0.90
2022-08-26T10:58:59.293Z,0.90
2022-08-26T11:01:47.085Z,1.00
2022-08-26T11:04:54.636Z,1.00
2022-08-26T11:07:40.503Z,0.97
2022-08-26T11:10:28.668Z,1.00
2022-08-26T11:13:00.116Z,0.75
2022-08-26T11:16:10.637Z,1.10
2022-08-26T11:18:54.776Z,0.80
2022-08-26T11:22:05.198Z,1.20
2022-08-26T11:25:11.819Z,0.95
2022-08-26T11:28:06.710Z,1.10
2022-08-26T11:30:56.918Z,0.75
2022-08-26T11:34:00.258Z,0.90
2022-08-26T11:36:58.100Z,0.70
2022-08-26T11:39:30.307Z,0.95
2022-08-26T11:42:03.238Z,0.90
2022-08-26T11:44:40.035Z,0.80
2022-08-26T11:47:11.559Z,1.08
2022-08-26T11:49:41.820Z,1.15
2022-08-26T11:52:18.017Z,0.90
2022-08-26T11:55:02.746Z,0.80
2022-08-26T11:57:35.840Z,0.70
2022-08-26T12:00:08.424Z,0.90
2022-08-26T12:02:41.546Z,0.70
2022-08-26T12:05:10.269Z,0.90
2022-08-26T12:07:39.586Z,0.93
2022-08-26T12:10:25.755Z,0.93
2022-08-26T12:13:00.449Z,1.00
2022-08-26T12:15:30.624Z,1.07
2022-08-26T12:17:59.335Z,0.80
2022-08-26T12:20:46.152Z,1.00
2022-08-26T12:23:32.244Z,0.80
2022-08-26T12:26:07.314Z,1.10
2022-08-26T12:28:44.138Z,0.93
2022-08-26T12:31:12.767Z,0.87
2022-08-26T12:33:45.944Z,1.20
2022-08-26T12:36:14.586Z,1.00
2022-08-26T12:38:42.860Z,0.93
2022-08-26T12:41:11.094Z,1.10
2022-08-26T12:43:46.578Z,1.00
2022-08-26T12:46:19.330Z,1.40
2022-08-26T12:48:50.714Z,1.10
2022-08-26T12:51:25.888Z,1.00
2022-08-26T12:53:55.136Z,0.97
2022-08-26T12:56:31.095Z,1.00
2022-08-26T12:59:07.303Z,1.03
2022-08-26T13:01:43.656Z,1.03
2022-08-26T13:04:35.265Z,1.17
2022-08-26T13:07:21.917Z,1.17
2022-08-26T13:09:51.927Z,1.03
2022-08-26T13:12:31.959Z,0.90
2022-08-26T13:15:03.300Z,1.00
2022-08-26T13:17:31.910Z,1.10
2022-08-26T13:20:04.169Z,1.10
2022-08-26T13:22:33.154Z,0.90
2022-08-26T13:25:01.427Z,1.20
2022-08-26T13:27:29.849Z,1.10
2022-08-26T13:29:59.430Z,1.03
2022-08-26T13:32:30.371Z,1.07
2022-08-26T13:34:59.721Z,1.17
2022-08-26T13:37:34.371Z,1.20
2022-08-26T13:40:04.737Z,1.20
2022-08-26T13:42:33.072Z,1.20
2022-08-26T13:45:05.427Z,1.00
2022-08-26T13:47:35.355Z,1.10
2022-08-26T13:50:04.098Z,1.37
2022-08-26T13:52:32.421Z,1.10
2022-08-26T13:55:01.596Z,1.70
2022-08-26T13:57:30.687Z,1.20
2022-08-26T14:00:00.172Z,1.10
2022-08-26T14:02:30.832Z,1.13
2022-08-26T14:05:00.552Z,1.47
2022-08-26T14:07:28.907Z,1.20
2022-08-26T14:09:58.408Z,1.30
2022-08-26T14:12:28.794Z,1.00
2022-08-26T14:14:57.503Z,1.30
2022-08-26T14:17:26.450Z,1.30
2022-08-26T14:20:00.472Z,1.30
2022-08-26T14:22:29.588Z,1.20
2022-08-26T14:24:57.817Z,1.23
2022-08-26T14:27:26.474Z,1.20
2022-08-26T14:29:55.220Z,1.37
2022-08-26T14:32:25.994Z,1.27
2022-08-26T14:34:55.689Z,0.90
2022-08-26T14:37:25.341Z,1.43
2022-08-26T14:39:53.549Z,1.40
2022-08-26T14:42:26.609Z,1.50
2022-08-26T14:45:02.553Z,1.33
2022-08-26T14:47:30.936Z,1.20
2022-08-26T14:49:59.196Z,1.30
2022-08-26T14:52:29.700Z,1.50
2022-08-26T14:54:57.017Z,1.40
2022-08-26T14:57:25.262Z,1.30
2022-08-26T14:59:56.062Z,1.27
2022-08-26T15:02:32.676Z,1.60
2022-08-26T15:05:02.156Z,1.30
2022-08-26T15:07:32.223Z,1.30
2022-08-26T15:10:01.360Z,1.30
2022-08-26T15:12:29.583Z,1.47
2022-08-26T15:14:58.283Z,1.50
2022-08-26T15:17:26.540Z,1.10
2022-08-26T15:19:54.805Z,1.73
2022-08-26T15:22:23.314Z,1.20
2022-08-26T15:24:53.770Z,1.13
2022-08-26T15:27:22.570Z,1.20
2022-08-26T15:29:51.878Z,1.40
2022-08-26T15:32:20.808Z,1.47
2022-08-26T15:34:49.997Z,1.20
2022-08-26T15:37:19.107Z,1.40
2022-08-26T15:39:47.503Z,1.20
2022-08-26T15:42:17.030Z,1.10
2022-08-26T15:44:46.854Z,1.20
2022-08-26T15:47:16.604Z,1.43
2022-08-26T15:49:45.073Z,1.33
2022-08-26T15:52:13.455Z,1.17
2022-08-26T15:54:41.739Z,1.30
2022-08-26T15:57:12.323Z,1.50
2022-08-26T15:59:43.372Z,1.17
2022-08-26T16:02:11.754Z,1.37
2022-08-26T16:04:40.272Z,1.33
2022-08-26T16:07:10.802Z,1.30
2022-08-26T16:09:39.309Z,1.30
2022-08-26T16:12:07.731Z,1.33
2022-08-26T16:14:36.813Z,1.40
2022-08-26T16:17:06.462Z,1.17
2022-08-26T16:19:34.691Z,1.10
2022-08-26T16:22:02.997Z,1.30
2022-08-26T16:24:33.499Z,1.17
2022-08-26T16:27:02.006Z,1.30
2022-08-26T16:29:31.900Z,1.20
2022-08-26T16:32:00.395Z,1.40
2022-08-26T16:34:30.191Z,1.00
2022-08-26T16:36:59.443Z,1.33
2022-08-26T16:39:27.885Z,1.30
2022-08-26T16:41:56.266Z,1.20
2022-08-26T16:44:24.787Z,1.20
2022-08-26T16:46:58.979Z,1.10
2022-08-26T16:49:27.531Z,1.17
2022-08-26T16:51:57.595Z,1.20
2022-08-26T16:54:25.977Z,1.33
2022-08-26T16:56:54.290Z,1.33
2022-08-26T16:59:22.665Z,1.23
2022-08-26T17:01:51.006Z,1.30
2022-08-26T17:04:19.995Z,1.40
2022-08-26T17:06:48.235Z,1.30
2022-08-26T17:09:17.904Z,1.33
2022-08-26T17:11:46.436Z,1.43
2022-08-26T17:14:15.341Z,1.10
2022-08-26T17:16:44.006Z,1.53
2022-08-26T17:19:12.713Z,1.40
2022-08-26T17:21:41.239Z,1.47
2022-08-26T17:24:09.478Z,1.40
2022-08-26T17:26:39.255Z,1.20
2022-08-26T17:29:08.006Z,1.40
2022-08-26T17:31:38.244Z,1.30
2022-08-26T17:34:07.474Z,1.30
2022-08-26T17:36:35.898Z,1.20
2022-08-26T17:39:05.545Z,1.70
2022-08-26T17:41:33.901Z,1.47
2022-08-26T17:44:03.788Z,1.50
2022-08-26T17:46:34.181Z,1.40
2022-08-26T17:49:05.051Z,1.67
2022-08-26T17:51:33.414Z,1.80
2022-08-26T17:54:01.753Z,1.57
2022-08-26T17:56:31.155Z,1.50
2022-08-26T17:59:02.862Z,1.50
2022-08-26T18:01:34.493Z,1.20
2022-08-26T18:04:02.884Z,1.63
2022-08-26T18:06:32.857Z,1.37
2022-08-26T18:09:01.809Z,1.60
2022-08-26T18:11:33.874Z,1.87
2022-08-26T18:14:02.335Z,1.20
2022-08-26T18:16:31.618Z,1.20
2022-08-26T18:19:02.738Z,1.70
2022-08-26T18:21:31.111Z,1.50
2022-08-26T18:23:59.576Z,1.70
2022-08-26T18:26:29.961Z,1.43
2022-08-26T18:28:59.405Z,1.83
2022-08-26T18:31:27.924Z,1.77
2022-08-26T18:33:56.754Z,1.30
2022-08-26T18:36:30.011Z,1.80
2022-08-26T18:38:59.014Z,1.27
2022-08-26T18:41:30.463Z,1.60
2022-08-26T18:43:59.467Z,1.50
2022-08-26T18:46:29.236Z,1.67
2022-08-26T18:48:58.445Z,1.40
2022-08-26T18:51:30.711Z,1.80
2022-08-26T18:54:01.068Z,1.80
2022-08-26T18:56:30.394Z,1.70
2022-08-26T18:58:59.860Z,1.93
2022-08-26T19:01:30.112Z,1.80
2022-08-26T19:04:01.334Z,1.47
2022-08-26T19:06:33.345Z,1.60
2022-08-26T19:09:02.675Z,1.90
2022-08-26T19:11:37.393Z,1.87
2022-08-26T19:14:14.238Z,1.60
2022-08-26T19:16:44.302Z,2.03
2022-08-26T19:19:13.147Z,2.07
2022-08-26T19:21:43.550Z,1.93
2022-08-26T19:24:15.663Z,1.90
2022-08-26T19:26:44.571Z,1.97
2022-08-26T19:29:13.854Z,2.20
2022-08-26T19:31:43.936Z,2.00
2022-08-26T19:34:12.710Z,2.30
2022-08-26T19:36:44.797Z,2.07
2022-08-26T19:39:15.576Z,1.90
2022-08-26T19:41:44.044Z,2.43
2022-08-26T19:44:37.993Z,2.20
2022-08-26T19:47:08.233Z,2.00
2022-08-26T19:49:36.841Z,2.40
2022-08-26T19:52:11.159Z,2.10
2022-08-26T19:54:42.469Z,2.57
2022-08-26T19:57:11.535Z,2.00
2022-08-26T19:59:40.256Z,2.50
2022-08-26T20:02:11.022Z,2.40
2022-08-26T20:04:41.775Z,2.03
2022-08-26T20:07:14.240Z,2.60
2022-08-26T20:09:47.588Z,2.50
2022-08-26T20:12:17.421Z,2.33
2022-08-26T20:14:45.907Z,2.80
2022-08-26T20:17:17.368Z,2.73
2022-08-26T20:19:59.650Z,2.30
2022-08-26T20:22:29.600Z,2.40
2022-08-26T20:24:58.139Z,2.10
2022-08-26T20:27:38.017Z,2.77
2022-08-26T20:30:09.521Z,2.67
2022-08-26T20:32:38.134Z,2.60
2022-08-26T20:35:08.316Z,2.37
2022-08-26T20:37:38.981Z,2.10
2022-08-26T20:40:09.401Z,2.73
2022-08-26T20:42:38.109Z,2.47
2022-08-26T20:45:08.108Z,2.00
2022-08-26T20:47:36.762Z,2.53
2022-08-26T20:50:05.919Z,2.77
2022-08-26T20:52:34.396Z,2.50
2022-08-26T20:55:04.393Z,2.30
2022-08-26T20:57:32.688Z,2.60
2022-08-26T21:00:01.193Z,2.43
2022-08-26T21:02:32.651Z,2.97
2022-08-26T21:05:01.679Z,2.83
2022-08-26T21:07:30.192Z,2.80
2022-08-26T21:09:59.291Z,2.90
2022-08-26T21:12:29.123Z,2.17
2022-08-26T21:14:57.367Z,2.50
2022-08-26T21:17:25.819Z,2.53
2022-08-26T21:19:54.282Z,2.90
2022-08-26T21:22:23.163Z,2.50
2022-08-26T21:24:51.644Z,2.63
2022-08-26T21:27:26.228Z,2.20
2022-08-26T21:29:56.911Z,2.53
2022-08-26T21:32:25.197Z,2.50
2022-08-26T21:34:56.024Z,2.53
2022-08-26T21:37:25.088Z,3.10
2022-08-26T21:39:55.233Z,2.97
2022-08-26T21:42:25.584Z,3.07
2022-08-26T21:44:55.814Z,2.87
2022-08-26T21:47:24.467Z,3.33
2022-08-26T21:49:53.789Z,2.87
2022-08-26T21:52:22.746Z,3.40
2022-08-26T21:54:51.502Z,3.13
2022-08-26T21:57:20.779Z,3.30
2022-08-26T21:59:49.141Z,2.70
2022-08-26T22:02:19.081Z,3.00
2022-08-26T22:04:48.971Z,3.20
2022-08-26T22:07:19.204Z,2.70
2022-08-26T22:09:47.751Z,2.83
2022-08-26T22:12:19.454Z,2.90
2022-08-26T22:14:48.208Z,3.40
2022-08-26T22:17:17.020Z,3.20
2022-08-26T22:19:46.887Z,3.07
2022-08-26T22:22:16.068Z,3.07
2022-08-26T22:24:44.489Z,2.90
2022-08-26T22:27:14.889Z,2.77
2022-08-26T22:29:43.086Z,2.80
2022-08-26T22:32:11.449Z,3.10
2022-08-26T22:34:40.824Z,3.10
2022-08-26T22:37:10.486Z,3.03
2022-08-26T22:39:39.027Z,3.20
2022-08-26T22:42:07.752Z,3.00
2022-08-26T22:44:37.033Z,2.97
2022-08-26T22:47:05.344Z,3.07
2022-08-26T22:49:33.857Z,3.20
2022-08-26T22:52:02.083Z,3.00
2022-08-26T22:54:31.695Z,3.00
2022-08-26T22:57:00.306Z,3.37
2022-08-26T22:59:28.705Z,3.00
2022-08-26T23:01:57.309Z,3.00
2022-08-26T23:04:25.977Z,3.40
2022-08-26T23:06:54.219Z,3.33
2022-08-26T23:09:22.505Z,3.70
2022-08-26T23:11:52.510Z,3.47
2022-08-26T23:14:20.983Z,3.30
2022-08-26T23:16:49.324Z,3.30
2022-08-26T23:19:21.010Z,3.20
2022-08-26T23:21:49.598Z,3.07
2022-08-26T23:24:18.433Z,3.00
2022-08-26T23:26:47.268Z,3.20
2022-08-26T23:29:16.857Z,3.40
2022-08-26T23:31:45.736Z,3.40
2022-08-26T23:34:31.729Z,3.63
2022-08-26T23:37:00.237Z,3.23
2022-08-26T23:39:29.556Z,3.90
2022-08-26T23:41:58.270Z,4.07
2022-08-26T23:44:28.304Z,3.60
2022-08-26T23:46:56.521Z,3.43
2022-08-26T23:49:25.952Z,3.00
2022-08-26T23:52:11.583Z,3.53
2022-08-26T23:54:41.158Z,3.73
2022-08-26T23:57:10.650Z,3.20
2022-08-26T23:59:40.473Z,3.53
